sensor_id;sensor_type;location;lat;lon;timestamp;pressure;altitude;pressure_sealevel;temperature;humidity
64362;BME280;50685;53.346;-6.296;2022-09-29T00:00:19;100480.59;;;8.90;85.37
64362;BME280;50685;53.346;-6.296;2022-09-29T00:02:45;100479.72;;;8.88;85.52
64362;BME280;50685;53.346;-6.296;2022-09-29T00:05:10;100472.69;;;8.87;85.72
64362;BME280;50685;53.346;-6.296;2022-09-29T00:07:35;100476.25;;;8.84;85.89
64362;BME280;50685;53.346;-6.296;2022-09-29T00:10:01;100478.94;;;8.80;86.00
64362;BME280;50685;53.346;-6.296;2022-09-29T00:12:27;100472.81;;;8.78;86.17
64362;BME280;50685;53.346;-6.296;2022-09-29T00:14:53;100472.81;;;8.75;85.91
64362;BME280;50685;53.346;-6.296;2022-09-29T00:17:18;100485.19;;;8.74;85.85
64362;BME280;50685;53.346;-6.296;2022-09-29T00:19:44;100472.84;;;8.70;85.71
64362;BME280;50685;53.346;-6.296;2022-09-29T00:22:09;100474.66;;;8.68;86.29
64362;BME280;50685;53.346;-6.296;2022-09-29T00:24:34;100478.19;;;8.67;86.13
64362;BME280;50685;53.346;-6.296;2022-09-29T00:27:00;100474.69;;;8.65;86.72
64362;BME280;50685;53.346;-6.296;2022-09-29T00:29:25;100475.56;;;8.64;87.06
64362;BME280;50685;53.346;-6.296;2022-09-29T00:31:51;100476.47;;;8.61;86.99
64362;BME280;50685;53.346;-6.296;2022-09-29T00:34:16;100482.69;;;8.59;87.06
64362;BME280;50685;53.346;-6.296;2022-09-29T00:36:41;100485.34;;;8.57;87.12
64362;BME280;50685;53.346;-6.296;2022-09-29T00:39:07;100480.91;;;8.58;86.82
64362;BME280;50685;53.346;-6.296;2022-09-29T00:41:33;100476.53;;;8.55;86.65
64362;BME280;50685;53.346;-6.296;2022-09-29T00:46:39;100474.78;;;8.54;87.22
64362;BME280;50685;53.346;-6.296;2022-09-29T00:49:11;100472.16;;;8.56;87.60
64362;BME280;50685;53.346;-6.296;2022-09-29T00:51:39;100474.78;;;8.54;87.49
64362;BME280;50685;53.346;-6.296;2022-09-29T00:54:07;100479.19;;;8.55;87.88
64362;BME280;50685;53.346;-6.296;2022-09-29T00:56:34;100466.88;;;8.56;88.24
64362;BME280;50685;53.346;-6.296;2022-09-29T00:59:02;100463.34;;;8.57;87.93
64362;BME280;50685;53.346;-6.296;2022-09-29T01:01:30;100458.94;;;8.56;88.13
64362;BME280;50685;53.346;-6.296;2022-09-29T01:03:56;100465.97;;;8.55;88.03
64362;BME280;50685;53.346;-6.296;2022-09-29T01:06:35;100467.72;;;8.56;88.55
64362;BME280;50685;53.346;-6.296;2022-09-29T01:09:03;100473.03;;;8.55;88.46
64362;BME280;50685;53.346;-6.296;2022-09-29T01:11:29;100465.97;;;8.55;88.58
64362;BME280;50685;53.346;-6.296;2022-09-29T01:13:59;100473.03;;;8.55;88.23
64362;BME280;50685;53.346;-6.296;2022-09-29T01:16:30;100465.09;;;8.55;88.75
64362;BME280;50685;53.346;-6.296;2022-09-29T01:18:57;100461.63;;;8.51;88.83
64362;BME280;50685;53.346;-6.296;2022-09-29T01:21:26;100464.28;;;8.49;88.90
64362;BME280;50685;53.346;-6.296;2022-09-29T01:41:49;100474.78;;;8.56;88.66
64362;BME280;50685;53.346;-6.296;2022-09-29T01:44:29;100466.81;;;8.59;88.32
64362;BME280;50685;53.346;-6.296;2022-09-29T01:47:01;100470.34;;;8.59;88.54
64362;BME280;50685;53.346;-6.296;2022-09-29T01:49:31;100464.16;;;8.59;88.52
64362;BME280;50685;53.346;-6.296;2022-09-29T01:52:00;100465.06;;;8.59;88.43
64362;BME280;50685;53.346;-6.296;2022-09-29T01:54:36;100458.91;;;8.60;88.53
64362;BME280;50685;53.346;-6.296;2022-09-29T01:57:18;100470.31;;;8.61;88.19
64362;BME280;50685;53.346;-6.296;2022-09-29T01:59:54;100453.59;;;8.60;88.54
64362;BME280;50685;53.346;-6.296;2022-09-29T02:02:25;100465.03;;;8.61;88.42
64362;BME280;50685;53.346;-6.296;2022-09-29T02:04:53;100462.38;;;8.62;88.52
64362;BME280;50685;53.346;-6.296;2022-09-29T02:07:27;100451.78;;;8.64;88.36
64362;BME280;50685;53.346;-6.296;2022-09-29T02:09:58;100460.63;;;8.61;88.05
64362;BME280;50685;53.346;-6.296;2022-09-29T02:12:27;100468.56;;;8.61;88.20
64362;BME280;50685;53.346;-6.296;2022-09-29T02:14:54;100474.75;;;8.60;88.16
64362;BME280;50685;53.346;-6.296;2022-09-29T02:17:24;100466.84;;;8.57;88.19
64362;BME280;50685;53.346;-6.296;2022-09-29T02:19:51;100470.31;;;8.61;88.13
64362;BME280;50685;53.346;-6.296;2022-09-29T02:22:16;100464.22;;;8.56;88.10
64362;BME280;50685;53.346;-6.296;2022-09-29T02:24:42;100473.84;;;8.63;88.02
64362;BME280;50685;53.346;-6.296;2022-09-29T02:27:08;100471.19;;;8.64;88.15
64362;BME280;50685;53.346;-6.296;2022-09-29T02:29:34;100455.31;;;8.64;88.18
64362;BME280;50685;53.346;-6.296;2022-09-29T02:31:59;100472.00;;;8.70;87.70
64362;BME280;50685;53.346;-6.296;2022-09-29T02:34:27;100479.91;;;8.73;87.47
64362;BME280;50685;53.346;-6.296;2022-09-29T02:44:35;100477.19;;;8.80;87.36
64362;BME280;50685;53.346;-6.296;2022-09-29T03:00:47;100482.41;;;8.87;86.98
64362;BME280;50685;53.346;-6.296;2022-09-29T03:03:13;100485.03;;;8.88;87.02
64362;BME280;50685;53.346;-6.296;2022-09-29T03:05:38;100484.13;;;8.89;86.82
64362;BME280;50685;53.346;-6.296;2022-09-29T03:08:03;100482.34;;;8.91;86.71
64362;BME280;50685;53.346;-6.296;2022-09-29T03:10:29;100483.22;;;8.92;86.69
64362;BME280;50685;53.346;-6.296;2022-09-29T03:12:54;100478.81;;;8.92;86.43
64362;BME280;50685;53.346;-6.296;2022-09-29T03:15:20;100473.56;;;8.89;86.67
64362;BME280;50685;53.346;-6.296;2022-09-29T03:17:45;100479.75;;;8.87;86.62
64362;BME280;50685;53.346;-6.296;2022-09-29T03:20:11;100483.25;;;8.87;86.75
64362;BME280;50685;53.346;-6.296;2022-09-29T03:22:36;100480.66;;;8.86;86.81
64362;BME280;50685;53.346;-6.296;2022-09-29T03:25:04;100493.00;;;8.85;86.91
64362;BME280;50685;53.346;-6.296;2022-09-29T03:27:31;100494.72;;;8.89;86.88
64362;BME280;50685;53.346;-6.296;2022-09-29T03:29:57;100493.81;;;8.92;86.64
64362;BME280;50685;53.346;-6.296;2022-09-29T03:32:22;100500.88;;;8.91;86.54
64362;BME280;50685;53.346;-6.296;2022-09-29T03:34:47;100493.78;;;8.93;86.25
64362;BME280;50685;53.346;-6.296;2022-09-29T03:37:13;100499.97;;;8.92;86.55
64362;BME280;50685;53.346;-6.296;2022-09-29T03:39:38;100507.00;;;8.93;86.24
64362;BME280;50685;53.346;-6.296;2022-09-29T03:42:03;100507.00;;;8.93;86.66
64362;BME280;50685;53.346;-6.296;2022-09-29T03:44:29;100498.19;;;8.93;86.40
64362;BME280;50685;53.346;-6.296;2022-09-29T03:46:54;100507.88;;;8.95;86.50
64362;BME280;50685;53.346;-6.296;2022-09-29T03:49:19;100505.19;;;8.98;86.44
64362;BME280;50685;53.346;-6.296;2022-09-29T03:51:45;100509.59;;;8.98;86.02
64362;BME280;50685;53.346;-6.296;2022-09-29T03:54:10;100506.09;;;8.97;86.01
64362;BME280;50685;53.346;-6.296;2022-09-29T03:56:36;100514.84;;;9.03;85.74
64362;BME280;50685;53.346;-6.296;2022-09-29T03:59:02;100511.34;;;9.00;86.02
64362;BME280;50685;53.346;-6.296;2022-09-29T04:01:29;100503.41;;;9.00;85.67
64362;BME280;50685;53.346;-6.296;2022-09-29T04:03:54;100506.94;;;9.01;85.95
64362;BME280;50685;53.346;-6.296;2022-09-29T04:06:20;100508.69;;;9.02;86.20
64362;BME280;50685;53.346;-6.296;2022-09-29T04:08:45;100511.31;;;9.04;86.11
64362;BME280;50685;53.346;-6.296;2022-09-29T04:11:13;100521.00;;;9.03;85.97
64362;BME280;50685;53.346;-6.296;2022-09-29T04:13:38;100518.38;;;9.02;85.67
64362;BME280;50685;53.346;-6.296;2022-09-29T04:16:04;100516.63;;;9.00;86.09
64362;BME280;50685;53.346;-6.296;2022-09-29T04:18:30;100512.22;;;9.01;85.83
64362;BME280;50685;53.346;-6.296;2022-09-29T04:20:56;100521.03;;;9.02;86.08
64362;BME280;50685;53.346;-6.296;2022-09-29T04:23:27;100519.25;;;9.00;86.09
64362;BME280;50685;53.346;-6.296;2022-09-29T04:25:54;100518.44;;;8.98;86.19
64362;BME280;50685;53.346;-6.296;2022-09-29T04:28:20;100517.53;;;8.98;86.41
64362;BME280;50685;53.346;-6.296;2022-09-29T04:30:45;100524.56;;;9.00;86.25
64362;BME280;50685;53.346;-6.296;2022-09-29T04:33:10;100537.75;;;9.04;86.01
64362;BME280;50685;53.346;-6.296;2022-09-29T04:35:36;100527.19;;;9.04;85.74
64362;BME280;50685;53.346;-6.296;2022-09-29T04:38:01;100534.22;;;9.06;86.16
64362;BME280;50685;53.346;-6.296;2022-09-29T04:40:26;100536.81;;;9.08;85.71
64362;BME280;50685;53.346;-6.296;2022-09-29T04:42:52;100537.69;;;9.10;85.77
64362;BME280;50685;53.346;-6.296;2022-09-29T04:45:17;100535.00;;;9.13;85.58
64362;BME280;50685;53.346;-6.296;2022-09-29T04:47:42;100538.53;;;9.13;85.45
64362;BME280;50685;53.346;-6.296;2022-09-29T04:50:08;100544.69;;;9.17;85.51
64362;BME280;50685;53.346;-6.296;2022-09-29T04:52:34;100549.06;;;9.16;85.55
64362;BME280;50685;53.346;-6.296;2022-09-29T04:55:00;100542.91;;;9.16;85.46
64362;BME280;50685;53.346;-6.296;2022-09-29T04:57:25;100550.84;;;9.18;85.40
64362;BME280;50685;53.346;-6.296;2022-09-29T04:59:50;100549.97;;;9.17;85.43
64362;BME280;50685;53.346;-6.296;2022-09-29T05:02:18;100548.25;;;9.11;85.59
64362;BME280;50685;53.346;-6.296;2022-09-29T05:04:44;100562.31;;;9.16;85.61
64362;BME280;50685;53.346;-6.296;2022-09-29T05:07:09;100570.25;;;9.16;85.44
64362;BME280;50685;53.346;-6.296;2022-09-29T05:09:35;100573.78;;;9.15;85.67
64362;BME280;50685;53.346;-6.296;2022-09-29T05:12:00;100579.06;;;9.15;85.65
64362;BME280;50685;53.346;-6.296;2022-09-29T05:14:26;100580.81;;;9.16;85.62
64362;BME280;50685;53.346;-6.296;2022-09-29T05:16:53;100588.78;;;9.15;85.71
64362;BME280;50685;53.346;-6.296;2022-09-29T05:19:18;100593.22;;;9.14;85.70
64362;BME280;50685;53.346;-6.296;2022-09-29T05:21:43;100596.75;;;9.13;85.57
64362;BME280;50685;53.346;-6.296;2022-09-29T05:24:11;100596.75;;;9.13;85.48
64362;BME280;50685;53.346;-6.296;2022-09-29T05:26:36;100587.97;;;9.10;85.88
64362;BME280;50685;53.346;-6.296;2022-09-29T05:29:01;100591.50;;;9.09;85.99
64362;BME280;50685;53.346;-6.296;2022-09-29T05:31:27;100599.41;;;9.12;85.60
64362;BME280;50685;53.346;-6.296;2022-09-29T05:33:53;100600.31;;;9.11;85.63
64362;BME280;50685;53.346;-6.296;2022-09-29T05:36:18;100597.66;;;9.11;85.66
64362;BME280;50685;53.346;-6.296;2022-09-29T05:38:44;100592.38;;;9.09;85.54
64362;BME280;50685;53.346;-6.296;2022-09-29T05:41:10;100588.84;;;9.09;85.71
64362;BME280;50685;53.346;-6.296;2022-09-29T05:43:36;100599.44;;;9.09;85.78
64362;BME280;50685;53.346;-6.296;2022-09-29T05:46:02;100596.81;;;9.07;85.79
64362;BME280;50685;53.346;-6.296;2022-09-29T05:48:28;100609.16;;;9.08;85.72
64362;BME280;50685;53.346;-6.296;2022-09-29T05:50:56;100603.84;;;9.07;85.92
64362;BME280;50685;53.346;-6.296;2022-09-29T05:53:22;100604.75;;;9.06;85.85
64362;BME280;50685;53.346;-6.296;2022-09-29T05:55:47;100610.03;;;9.06;86.06
64362;BME280;50685;53.346;-6.296;2022-09-29T05:58:13;100608.28;;;9.03;86.10
64362;BME280;50685;53.346;-6.296;2022-09-29T06:00:38;100610.97;;;9.02;86.15
64362;BME280;50685;53.346;-6.296;2022-09-29T06:03:04;100615.34;;;9.04;86.24
64362;BME280;50685;53.346;-6.296;2022-09-29T06:05:29;100618.91;;;9.02;86.06
64362;BME280;50685;53.346;-6.296;2022-09-29T06:07:54;100614.47;;;9.04;86.26
64362;BME280;50685;53.346;-6.296;2022-09-29T06:10:20;100617.13;;;9.04;85.98
64362;BME280;50685;53.346;-6.296;2022-09-29T06:12:46;100617.13;;;9.04;86.09
64362;BME280;50685;53.346;-6.296;2022-09-29T06:15:11;100617.16;;;9.02;86.12
64362;BME280;50685;53.346;-6.296;2022-09-29T06:17:37;100608.31;;;9.02;86.27
64362;BME280;50685;53.346;-6.296;2022-09-29T06:20:02;100620.66;;;9.03;86.10
64362;BME280;50685;53.346;-6.296;2022-09-29T06:22:28;100626.81;;;9.06;86.12
64362;BME280;50685;53.346;-6.296;2022-09-29T06:24:54;100624.13;;;9.08;86.10
64362;BME280;50685;53.346;-6.296;2022-09-29T06:27:19;100628.50;;;9.10;86.03
64362;BME280;50685;53.346;-6.296;2022-09-29T06:29:44;100629.41;;;9.11;85.90
64362;BME280;50685;53.346;-6.296;2022-09-29T06:32:10;100628.53;;;9.12;85.68
64362;BME280;50685;53.346;-6.296;2022-09-29T06:34:35;100632.91;;;9.14;85.65
64362;BME280;50685;53.346;-6.296;2022-09-29T06:37:20;100633.75;;;9.15;85.60
64362;BME280;50685;53.346;-6.296;2022-09-29T06:40:03;100640.84;;;9.14;85.67
64362;BME280;50685;53.346;-6.296;2022-09-29T06:42:29;100641.69;;;9.15;85.54
64362;BME280;50685;53.346;-6.296;2022-09-29T06:44:55;100648.75;;;9.16;85.50
64362;BME280;50685;53.346;-6.296;2022-09-29T06:47:22;100649.63;;;9.18;85.36
64362;BME280;50685;53.346;-6.296;2022-09-29T06:49:47;100658.41;;;9.23;85.23
64362;BME280;50685;53.346;-6.296;2022-09-29T06:52:25;100656.63;;;9.24;85.25
64362;BME280;50685;53.346;-6.296;2022-09-29T06:54:50;100662.75;;;9.27;85.17
64362;BME280;50685;53.346;-6.296;2022-09-29T06:57:15;100651.28;;;9.28;84.83
64362;BME280;50685;53.346;-6.296;2022-09-29T06:59:43;100666.16;;;9.40;84.69
64362;BME280;50685;53.346;-6.296;2022-09-29T07:02:08;100666.09;;;9.48;84.37
64362;BME280;50685;53.346;-6.296;2022-09-29T07:04:34;100662.56;;;9.49;84.29
64362;BME280;50685;53.346;-6.296;2022-09-29T07:07:02;100666.06;;;9.49;84.09
64362;BME280;50685;53.346;-6.296;2022-09-29T07:09:27;100660.75;;;9.49;84.39
64362;BME280;50685;53.346;-6.296;2022-09-29T07:11:52;100674.91;;;9.50;84.30
64362;BME280;50685;53.346;-6.296;2022-09-29T07:14:19;100672.25;;;9.50;84.11
64362;BME280;50685;53.346;-6.296;2022-09-29T07:16:45;100676.63;;;9.51;83.97
64362;BME280;50685;53.346;-6.296;2022-09-29T07:19:13;100683.69;;;9.54;83.93
64362;BME280;50685;53.346;-6.296;2022-09-29T07:21:38;100683.63;;;9.57;83.91
64362;BME280;50685;53.346;-6.296;2022-09-29T07:24:07;100684.50;;;9.59;83.83
64362;BME280;50685;53.346;-6.296;2022-09-29T07:26:33;100687.13;;;9.60;83.76
64362;BME280;50685;53.346;-6.296;2022-09-29T07:29:01;100686.22;;;9.63;83.81
64362;BME280;50685;53.346;-6.296;2022-09-29T07:31:29;100697.66;;;9.67;83.85
64362;BME280;50685;53.346;-6.296;2022-09-29T07:33:56;100697.63;;;9.71;83.59
64362;BME280;50685;53.346;-6.296;2022-09-29T07:36:24;100697.56;;;9.74;83.69
64362;BME280;50685;53.346;-6.296;2022-09-29T07:38:52;100699.28;;;9.80;83.20
64362;BME280;50685;53.346;-6.296;2022-09-29T07:41:19;100701.91;;;9.81;83.08
64362;BME280;50685;53.346;-6.296;2022-09-29T07:43:45;100692.22;;;9.82;82.91
64362;BME280;50685;53.346;-6.296;2022-09-29T07:46:11;100706.34;;;9.81;82.98
64362;BME280;50685;53.346;-6.296;2022-09-29T07:48:36;100711.66;;;9.78;83.25
64362;BME280;50685;53.346;-6.296;2022-09-29T07:53:30;100717.78;;;9.85;83.28
64362;BME280;50685;53.346;-6.296;2022-09-29T07:56:14;100720.34;;;9.89;83.54
64362;BME280;50685;53.346;-6.296;2022-09-29T08:04:31;100717.53;;;10.05;83.15
64362;BME280;50685;53.346;-6.296;2022-09-29T08:06:56;100720.13;;;10.11;83.25
64362;BME280;50685;53.346;-6.296;2022-09-29T08:09:43;100724.44;;;10.18;83.26
64362;BME280;50685;53.346;-6.296;2022-09-29T08:12:31;100730.56;;;10.23;82.93
64362;BME280;50685;53.346;-6.296;2022-09-29T08:14:56;100729.59;;;10.31;82.59
64362;BME280;50685;53.346;-6.296;2022-09-29T08:20:08;100738.38;;;10.37;82.83
64362;BME280;50685;53.346;-6.296;2022-09-29T08:22:34;100746.25;;;10.43;82.61
64362;BME280;50685;53.346;-6.296;2022-09-29T08:25:01;100746.19;;;10.48;82.34
64362;BME280;50685;53.346;-6.296;2022-09-29T08:27:28;100752.31;;;10.52;82.28
64362;BME280;50685;53.346;-6.296;2022-09-29T08:30:02;100750.50;;;10.55;82.24
64362;BME280;50685;53.346;-6.296;2022-09-29T08:32:30;100755.72;;;10.61;82.10
64362;BME280;50685;53.346;-6.296;2022-09-29T08:34:56;100757.44;;;10.67;82.04
64362;BME280;50685;53.346;-6.296;2022-09-29T08:37:21;100760.88;;;10.72;81.59
64362;BME280;50685;53.346;-6.296;2022-09-29T08:39:46;100749.31;;;10.78;81.25
64362;BME280;50685;53.346;-6.296;2022-09-29T08:44:45;100761.53;;;10.88;81.11
64362;BME280;50685;53.346;-6.296;2022-09-29T08:47:19;100760.59;;;10.92;80.97
64362;BME280;50685;53.346;-6.296;2022-09-29T08:55:59;100765.53;;;11.16;80.16
64362;BME280;50685;53.346;-6.296;2022-09-29T08:58:38;100760.97;;;11.25;79.92
64362;BME280;50685;53.346;-6.296;2022-09-29T09:06:47;100766.66;;;11.57;79.13
64362;BME280;50685;53.346;-6.296;2022-09-29T09:28:23;100783.22;;;12.20;76.31
64362;BME280;50685;53.346;-6.296;2022-09-29T09:30:57;100785.16;;;12.13;76.40
64362;BME280;50685;53.346;-6.296;2022-09-29T09:35:52;100785.28;;;12.07;77.14
64362;BME280;50685;53.346;-6.296;2022-09-29T09:38:22;100787.84;;;12.10;77.60
64362;BME280;50685;53.346;-6.296;2022-09-29T09:40:51;100797.66;;;12.08;77.50
64362;BME280;50685;53.346;-6.296;2022-09-29T09:53:46;100803.31;;;12.36;77.57
64362;BME280;50685;53.346;-6.296;2022-09-29T10:01:22;100808.38;;;12.49;77.29
64362;BME280;50685;53.346;-6.296;2022-09-29T10:03:47;100806.41;;;12.59;77.01
64362;BME280;50685;53.346;-6.296;2022-09-29T10:06:12;100805.38;;;12.66;77.11
64362;BME280;50685;53.346;-6.296;2022-09-29T10:08:38;100805.25;;;12.72;77.13
64362;BME280;50685;53.346;-6.296;2022-09-29T10:13:43;100822.69;;;12.84;76.68
64362;BME280;50685;53.346;-6.296;2022-09-29T10:16:14;100820.00;;;12.87;75.98
64362;BME280;50685;53.346;-6.296;2022-09-29T10:18:41;100825.22;;;12.90;76.52
64362;BME280;50685;53.346;-6.296;2022-09-29T10:23:56;100818.94;;;12.94;75.96
64362;BME280;50685;53.346;-6.296;2022-09-29T10:26:24;100819.78;;;12.96;75.98
64362;BME280;50685;53.346;-6.296;2022-09-29T10:36:46;100822.56;;;13.29;75.43
64362;BME280;50685;53.346;-6.296;2022-09-29T10:41:56;100825.78;;;13.45;74.55
64362;BME280;50685;53.346;-6.296;2022-09-29T10:44:22;100825.72;;;13.48;74.40
64362;BME280;50685;53.346;-6.296;2022-09-29T10:46:51;100831.84;;;13.50;74.12
64362;BME280;50685;53.346;-6.296;2022-09-29T10:49:25;100829.13;;;13.54;74.33
64362;BME280;50685;53.346;-6.296;2022-09-29T10:54:58;100816.66;;;13.56;74.18
64362;BME280;50685;53.346;-6.296;2022-09-29T10:57:25;100813.78;;;13.63;74.30
64362;BME280;50685;53.346;-6.296;2022-09-29T10:59:51;100814.50;;;13.70;74.24
64362;BME280;50685;53.346;-6.296;2022-09-29T11:02:36;100823.97;;;13.82;73.61
64362;BME280;50685;53.346;-6.296;2022-09-29T11:05:03;100824.56;;;13.95;73.75
64362;BME280;50685;53.346;-6.296;2022-09-29T11:07:30;100819.69;;;14.11;72.71
64362;BME280;50685;53.346;-6.296;2022-09-29T11:09:58;100804.19;;;14.24;71.59
64362;BME280;50685;53.346;-6.296;2022-09-29T11:20:39;100815.34;;;14.71;70.08
64362;BME280;50685;53.346;-6.296;2022-09-29T11:23:50;100825.84;;;14.77;69.95
64362;BME280;50685;53.346;-6.296;2022-09-29T11:36:58;100808.59;;;15.45;68.91
64362;BME280;50685;53.346;-6.296;2022-09-29T11:44:51;100795.84;;;15.26;68.40
64362;BME280;50685;53.346;-6.296;2022-09-29T11:53:01;100801.41;;;15.47;68.46
64362;BME280;50685;53.346;-6.296;2022-09-29T11:58:21;100793.91;;;15.58;67.13
64362;BME280;50685;53.346;-6.296;2022-09-29T12:09:07;100806.03;;;15.68;66.57
64362;BME280;50685;53.346;-6.296;2022-09-29T12:16:56;100813.16;;;15.68;66.63
64362;BME280;50685;53.346;-6.296;2022-09-29T12:19:25;100810.34;;;15.72;66.74
64362;BME280;50685;53.346;-6.296;2022-09-29T12:21:55;100812.19;;;15.70;66.05
64362;BME280;50685;53.346;-6.296;2022-09-29T12:27:31;100813.50;;;15.58;66.52
64362;BME280;50685;53.346;-6.296;2022-09-29T12:33:18;100809.63;;;15.67;65.33
64362;BME280;50685;53.346;-6.296;2022-09-29T12:35:50;100812.03;;;15.75;65.28
64362;BME280;50685;53.346;-6.296;2022-09-29T12:41:00;100820.84;;;15.79;64.99
64362;BME280;50685;53.346;-6.296;2022-09-29T12:46:16;100834.56;;;15.68;64.58
64362;BME280;50685;53.346;-6.296;2022-09-29T12:52:19;100829.41;;;15.62;65.60
64362;BME280;50685;53.346;-6.296;2022-09-29T13:01:21;100833.22;;;15.81;64.20
64362;BME280;50685;53.346;-6.296;2022-09-29T13:14:44;100824.44;;;17.90;58.85
64362;BME280;50685;53.346;-6.296;2022-09-29T13:17:17;100822.28;;;18.00;58.17
64362;BME280;50685;53.346;-6.296;2022-09-29T13:22:46;100834.06;;;17.53;60.77
64362;BME280;50685;53.346;-6.296;2022-09-29T13:28:23;100829.44;;;17.99;57.38
64362;BME280;50685;53.346;-6.296;2022-09-29T13:30:49;100830.91;;;18.27;57.63
64362;BME280;50685;53.346;-6.296;2022-09-29T13:33:20;100821.72;;;18.33;56.91
64362;BME280;50685;53.346;-6.296;2022-09-29T13:35:47;100816.63;;;18.66;56.05
64362;BME280;50685;53.346;-6.296;2022-09-29T13:38:16;100820.06;;;19.08;55.88
64362;BME280;50685;53.346;-6.296;2022-09-29T13:43:39;100831.34;;;18.57;57.22
64362;BME280;50685;53.346;-6.296;2022-09-29T13:49:10;100844.50;;;17.81;57.23
64362;BME280;50685;53.346;-6.296;2022-09-29T13:51:45;100843.00;;;17.74;57.16
64362;BME280;50685;53.346;-6.296;2022-09-29T13:54:21;100853.59;;;17.77;56.65
64362;BME280;50685;53.346;-6.296;2022-09-29T13:59:27;100844.34;;;17.84;56.61
64362;BME280;50685;53.346;-6.296;2022-09-29T14:01:53;100848.97;;;17.80;57.26
64362;BME280;50685;53.346;-6.296;2022-09-29T14:07:02;100859.63;;;17.61;57.44
64362;BME280;50685;53.346;-6.296;2022-09-29T14:09:38;100866.16;;;17.54;57.88
64362;BME280;50685;53.346;-6.296;2022-09-29T14:12:14;100858.59;;;17.64;57.87
64362;BME280;50685;53.346;-6.296;2022-09-29T14:14:41;100863.66;;;17.72;58.15
64362;BME280;50685;53.346;-6.296;2022-09-29T14:17:10;100858.59;;;17.64;58.18
64362;BME280;50685;53.346;-6.296;2022-09-29T14:27:36;100852.31;;;17.21;58.57
64362;BME280;50685;53.346;-6.296;2022-09-29T14:33:12;100866.66;;;17.42;57.38
64362;BME280;50685;53.346;-6.296;2022-09-29T14:35:41;100870.84;;;17.49;57.77
64362;BME280;50685;53.346;-6.296;2022-09-29T14:38:15;100875.13;;;17.53;57.48
64362;BME280;50685;53.346;-6.296;2022-09-29T14:46:14;100892.28;;;17.27;58.27
64362;BME280;50685;53.346;-6.296;2022-09-29T14:49:20;100896.13;;;17.20;58.31
64362;BME280;50685;53.346;-6.296;2022-09-29T14:58:10;100888.41;;;16.86;59.40
64362;BME280;50685;53.346;-6.296;2022-09-29T15:19:59;100865.69;;;16.49;60.73
64362;BME280;50685;53.346;-6.296;2022-09-29T15:25:39;100859.03;;;16.36;61.05
64362;BME280;50685;53.346;-6.296;2022-09-29T15:30:48;100859.13;;;16.33;61.46
64362;BME280;50685;53.346;-6.296;2022-09-29T15:33:29;100864.41;;;16.34;61.09
64362;BME280;50685;53.346;-6.296;2022-09-29T17:04:54;100876.16;;;15.77;63.58
64362;BME280;50685;53.346;-6.296;2022-09-29T17:10:31;100875.78;;;15.61;64.15
64362;BME280;50685;53.346;-6.296;2022-09-29T17:13:12;100884.91;;;15.55;64.42
64362;BME280;50685;53.346;-6.296;2022-09-29T17:18:46;100872.72;;;15.46;65.35
64362;BME280;50685;53.346;-6.296;2022-09-29T17:21:27;100864.00;;;15.39;64.19
64362;BME280;50685;53.346;-6.296;2022-09-29T17:30:42;100860.16;;;15.20;65.60
64362;BME280;50685;53.346;-6.296;2022-09-29T17:33:18;100860.41;;;15.12;65.31
64362;BME280;50685;53.346;-6.296;2022-09-29T17:39:15;100888.59;;;14.92;66.94
64362;BME280;50685;53.346;-6.296;2022-09-29T17:41:52;100897.69;;;14.85;67.07
64362;BME280;50685;53.346;-6.296;2022-09-29T17:44:46;100907.59;;;14.82;66.00
64362;BME280;50685;53.346;-6.296;2022-09-29T17:47:20;100912.19;;;14.76;66.56
64362;BME280;50685;53.346;-6.296;2022-09-29T17:53:29;100915.16;;;14.66;68.42
64362;BME280;50685;53.346;-6.296;2022-09-29T17:56:08;100909.91;;;14.61;67.88
64362;BME280;50685;53.346;-6.296;2022-09-29T17:58:53;100917.22;;;14.54;68.61
64362;BME280;50685;53.346;-6.296;2022-09-29T18:01:39;100920.06;;;14.48;68.49
64362;BME280;50685;53.346;-6.296;2022-09-29T18:07:34;100931.00;;;14.37;67.51
64362;BME280;50685;53.346;-6.296;2022-09-29T18:16:42;100957.06;;;14.27;70.57
64362;BME280;50685;53.346;-6.296;2022-09-29T18:19:44;100958.91;;;14.24;68.98
64362;BME280;50685;53.346;-6.296;2022-09-29T18:37:11;100971.72;;;14.09;70.71
64362;BME280;50685;53.346;-6.296;2022-09-29T18:46:12;100970.22;;;13.99;70.87
64362;BME280;50685;53.346;-6.296;2022-09-29T18:58:08;100954.66;;;13.80;71.90
64362;BME280;50685;53.346;-6.296;2022-09-29T19:12:55;100932.97;;;13.58;75.88
64362;BME280;50685;53.346;-6.296;2022-09-29T19:15:56;100929.53;;;13.52;75.62
64362;BME280;50685;53.346;-6.296;2022-09-29T19:47:07;100936.84;;;12.99;76.78
64362;BME280;50685;53.346;-6.296;2022-09-29T20:08:45;100936.63;;;13.10;75.94
64362;BME280;50685;53.346;-6.296;2022-09-29T20:11:35;100943.63;;;13.14;77.48
64362;BME280;50685;53.346;-6.296;2022-09-29T20:39:11;100915.50;;;13.01;76.17
